Time;durP1;ratioP1;P1;durP2;ratioP2;P2;SDS_P1;SDS_P2;PMS_P1;PMS_P2;Temp;Humidity;BMP_temperature;BMP_pressure;BME280_temperature;BME280_humidity;BME280_pressure;Samples;Min_cycle;Max_cycle;Signal;HPM_P1;HPM_P2
2023/05/27 00:02:01;;;;;;;17.45;4.68;;;;;;;10.96;70.12;102836.88;4958929;28;20043;-65
2023/05/27 00:04:26;;;;;;;13.65;4.75;;;;;;;10.89;68.66;102841.66;4961202;28;20030;-65
2023/05/27 00:06:53;;;;;;;16.33;5.00;;;;;;;10.83;69.70;102839.59;4960174;28;20038;-65
2023/05/27 00:09:18;;;;;;;13.25;5.30;;;;;;;10.84;70.14;102837.91;4959782;28;20588;-65
2023/05/27 00:11:43;;;;;;;13.85;4.85;;;;;;;10.81;70.69;102837.75;4959512;28;20082;-64
2023/05/27 00:14:09;;;;;;;13.70;4.70;;;;;;;10.77;70.71;102840.16;4959986;28;20513;-65
2023/05/27 00:16:36;;;;;;;13.80;4.38;;;;;;;10.76;70.96;102829.66;4960460;28;20035;-65
2023/05/27 00:19:02;;;;;;;16.27;4.95;;;;;;;10.71;70.92;102833.75;4959728;28;20037;-65
2023/05/27 00:21:28;;;;;;;13.18;4.97;;;;;;;10.72;69.26;102832.94;4959322;28;20074;-65
2023/05/27 00:23:53;;;;;;;16.20;5.20;;;;;;;10.73;70.90;102834.72;4960557;28;20027;-64
2023/05/27 00:26:19;;;;;;;14.45;5.00;;;;;;;10.69;71.24;102841.47;4959269;28;20035;-65
2023/05/27 00:28:44;;;;;;;14.82;4.97;;;;;;;10.64;71.02;102829.00;4960148;28;20129;-65
2023/05/27 00:31:10;;;;;;;11.57;5.18;;;;;;;10.61;71.20;102829.72;4958763;28;20042;-65
2023/05/27 00:33:35;;;;;;;16.80;5.40;;;;;;;10.54;70.91;102828.50;4959680;28;20027;-65
2023/05/27 00:36:00;;;;;;;13.20;4.80;;;;;;;10.50;70.25;102823.00;4958516;28;20603;-65
2023/05/27 00:38:26;;;;;;;15.82;4.75;;;;;;;10.38;71.88;102821.50;4959189;28;20031;-64
2023/05/27 00:40:53;;;;;;;13.18;4.97;;;;;;;10.39;71.51;102819.81;4958397;28;20027;-64
2023/05/27 00:43:18;;;;;;;11.40;4.30;;;;;;;10.34;71.32;102814.34;4958402;28;20038;-65
2023/05/27 00:45:43;;;;;;;12.23;4.50;;;;;;;10.25;72.35;102827.72;4959350;28;20027;-65
2023/05/27 00:48:09;;;;;;;13.73;4.38;;;;;;;10.26;71.96;102820.78;4959164;28;20034;-65
2023/05/27 00:50:35;;;;;;;12.75;4.50;;;;;;;10.20;72.44;102829.16;4958072;28;20031;-65
2023/05/27 00:53:01;;;;;;;13.75;5.15;;;;;;;10.24;72.11;102823.31;4959172;28;20027;-65
2023/05/27 00:55:26;;;;;;;13.07;4.38;;;;;;;10.22;72.08;102816.22;4958948;28;20031;-64
2023/05/27 00:57:55;;;;;;;12.23;4.60;;;;;;;10.06;72.86;102820.53;4958141;28;20046;-65
2023/05/27 01:00:23;;;;;;;12.45;5.25;;;;;;;10.02;72.82;102817.66;4958709;28;20491;-65
2023/05/27 01:02:49;;;;;;;13.02;4.93;;;;;;;9.97;72.80;102820.00;4958733;28;20030;-65
2023/05/27 01:05:16;;;;;;;15.07;4.85;;;;;;;9.97;73.31;102819.13;4957948;28;20026;-65
2023/05/27 01:08:10;;;;;;;19.20;4.85;;;;;;;9.96;73.17;102809.50;4959213;28;20445;-65
2023/05/27 01:10:54;;;;;;;17.15;4.53;;;;;;;9.97;73.03;102812.19;4959317;28;20577;-65
2023/05/27 01:13:39;;;;;;;14.73;4.68;;;;;;;9.95;72.85;102810.31;4958637;28;20031;-65
2023/05/27 01:16:11;;;;;;;13.27;4.53;;;;;;;9.95;73.12;102818.13;4959221;28;20093;-65
2023/05/27 01:18:37;;;;;;;14.10;4.45;;;;;;;9.89;69.02;102814.38;4959797;28;20113;-64
2023/05/27 01:21:06;;;;;;;17.58;4.90;;;;;;;9.88;73.12;102815.16;4958801;28;20031;-65
2023/05/27 01:23:32;;;;;;;10.93;4.60;;;;;;;9.85;72.74;102798.50;4958785;28;20049;-65
2023/05/27 01:25:58;;;;;;;11.90;4.50;;;;;;;9.83;73.26;102798.38;4959725;28;20033;-65
2023/05/27 01:28:23;;;;;;;13.60;4.85;;;;;;;9.85;73.15;102806.31;4958709;28;20071;-65
2023/05/27 01:30:54;;;;;;;12.63;4.40;;;;;;;9.81;73.38;102807.81;4957586;28;20064;-63
2023/05/27 01:33:24;;;;;;;12.90;4.28;;;;;;;9.80;73.52;102800.78;4958835;28;20061;-65
2023/05/27 01:35:53;;;;;;;12.65;4.28;;;;;;;9.76;73.43;102804.03;4959063;28;20038;-64
2023/05/27 01:38:21;;;;;;;14.38;5.10;;;;;;;9.75;73.48;102807.47;4958124;28;20031;-65
2023/05/27 01:40:49;;;;;;;12.68;4.65;;;;;;;9.71;73.52;102811.56;4956775;28;20022;-65
2023/05/27 01:43:15;;;;;;;12.95;4.78;;;;;;;9.69;73.88;102801.88;4957496;28;20031;-65
2023/05/27 01:45:41;;;;;;;11.40;4.60;;;;;;;9.66;73.87;102793.88;4957889;28;20067;-64
2023/05/27 01:48:07;;;;;;;11.80;4.57;;;;;;;9.62;74.05;102794.53;4958150;28;20080;-65
2023/05/27 01:50:33;;;;;;;12.43;4.05;;;;;;;9.56;74.06;102798.56;4957854;28;20498;-64
2023/05/27 01:52:59;;;;;;;14.30;4.32;;;;;;;9.52;74.58;102800.91;4957545;28;20534;-64
2023/05/27 01:55:25;;;;;;;13.75;4.40;;;;;;;9.51;74.49;102796.50;4958271;28;20869;-65
2023/05/27 01:57:50;;;;;;;13.02;4.50;;;;;;;9.44;73.38;102796.94;4958998;28;20030;-64
2023/05/27 02:00:16;;;;;;;15.70;5.10;;;;;;;9.38;75.10;102794.84;4958142;28;20065;-65
2023/05/27 02:02:41;;;;;;;14.48;5.05;;;;;;;9.36;75.10;102797.38;4957579;28;20123;-65
2023/05/27 02:05:07;;;;;;;14.93;5.05;;;;;;;9.33;75.00;102786.78;4957640;28;20498;-64
2023/05/27 02:07:32;;;;;;;17.00;5.70;;;;;;;9.29;75.36;102789.13;4958305;28;20122;-65
2023/05/27 02:09:58;;;;;;;12.73;4.95;;;;;;;9.27;75.50;102788.09;4957805;28;20037;-64
2023/05/27 02:12:23;;;;;;;15.75;5.38;;;;;;;9.26;75.66;102786.34;4957458;28;20030;-65
2023/05/27 02:14:49;;;;;;;13.73;5.38;;;;;;;9.23;75.64;102795.72;4958516;28;20030;-65
2023/05/27 02:17:14;;;;;;;12.38;4.70;;;;;;;9.19;75.45;102793.75;4957311;28;20521;-64
2023/05/27 02:19:40;;;;;;;15.68;4.95;;;;;;;9.14;75.59;102795.19;4958106;28;20027;-65
2023/05/27 02:22:05;;;;;;;13.15;5.10;;;;;;;9.12;75.12;102796.78;4956654;28;20031;-64
2023/05/27 02:24:30;;;;;;;15.55;5.18;;;;;;;9.06;75.95;102793.81;4956443;28;20518;-64
2023/05/27 02:26:55;;;;;;;13.85;4.82;;;;;;;9.01;76.51;102792.63;4956788;28;20038;-64
2023/05/27 02:29:21;;;;;;;16.00;4.85;;;;;;;8.98;76.86;102795.03;4956847;28;20027;-65
2023/05/27 02:31:46;;;;;;;14.93;4.93;;;;;;;8.95;77.07;102802.63;4955199;28;20034;-65
2023/05/27 02:34:11;;;;;;;17.25;5.05;;;;;;;8.96;77.10;102796.66;4956764;28;20023;-64
2023/05/27 02:36:37;;;;;;;15.13;5.35;;;;;;;8.97;77.04;102793.25;4957653;28;20556;-65
2023/05/27 02:39:02;;;;;;;14.50;5.50;;;;;;;8.98;76.38;102798.53;4957523;28;20296;-65
2023/05/27 02:41:28;;;;;;;15.93;5.15;;;;;;;8.98;76.78;102798.53;4956671;28;20035;-64
2023/05/27 02:43:54;;;;;;;17.20;5.40;;;;;;;8.93;76.84;102799.94;4956876;28;20086;-64
2023/05/27 02:46:19;;;;;;;13.40;5.45;;;;;;;8.90;77.36;102804.06;4956284;28;20034;-65
2023/05/27 02:48:45;;;;;;;16.10;4.80;;;;;;;8.86;77.44;102798.69;4957228;28;20039;-64
2023/05/27 02:51:11;;;;;;;15.57;5.72;;;;;;;8.84;76.40;102800.28;4956351;28;20101;-64
2023/05/27 02:53:36;;;;;;;17.83;5.88;;;;;;;8.82;77.01;102798.38;4954515;28;20482;-64
2023/05/27 02:56:01;;;;;;;17.25;5.38;;;;;;;8.71;77.97;102800.31;4956691;28;20030;-64
2023/05/27 02:58:26;;;;;;;17.08;5.65;;;;;;;8.63;78.29;102802.44;4956597;28;20667;-64
2023/05/27 03:00:52;;;;;;;15.45;5.45;;;;;;;8.59;78.37;102803.06;4956860;28;20528;-64
2023/05/27 03:03:17;;;;;;;14.48;5.45;;;;;;;8.57;78.55;102812.44;4956375;28;20031;-64
2023/05/27 03:05:43;;;;;;;13.90;5.18;;;;;;;8.57;78.55;102808.94;4956046;28;20038;-64
2023/05/27 03:08:08;;;;;;;13.65;5.03;;;;;;;8.58;78.55;102814.22;4956873;28;20090;-65
2023/05/27 03:10:33;;;;;;;16.17;5.35;;;;;;;8.57;78.52;102812.44;4956308;28;20039;-64
2023/05/27 03:12:58;;;;;;;13.68;5.40;;;;;;;8.54;78.38;102817.44;4955355;28;20027;-64
2023/05/27 03:15:24;;;;;;;14.93;5.18;;;;;;;8.52;78.90;102806.94;4956607;28;20196;-64
2023/05/27 03:17:49;;;;;;;12.45;4.97;;;;;;;8.44;78.61;102815.94;4956882;28;20034;-64
2023/05/27 03:20:16;;;;;;;14.55;5.68;;;;;;;8.39;78.76;102809.53;4956623;28;20118;-65
2023/05/27 03:22:42;;;;;;;13.23;5.60;;;;;;;8.34;79.90;102805.72;4956176;28;20074;-64
2023/05/27 03:25:08;;;;;;;15.48;5.22;;;;;;;8.33;80.13;102815.22;4955971;28;20027;-64
2023/05/27 03:27:34;;;;;;;16.25;5.90;;;;;;;8.28;79.33;102806.22;4956757;28;20042;-64
2023/05/27 03:29:59;;;;;;;18.50;5.47;;;;;;;8.26;80.27;102794.84;4960419;28;20487;-64
2023/05/27 03:32:24;;;;;;;16.63;5.93;;;;;;;8.27;80.82;102806.13;4960721;28;20082;-65
2023/05/27 03:34:50;;;;;;;17.63;5.47;;;;;;;8.25;80.61;102793.03;4960839;28;20042;-64
2023/05/27 03:37:15;;;;;;;13.93;5.20;;;;;;;8.24;80.30;102793.88;4960560;28;20324;-64
2023/05/27 03:39:40;;;;;;;12.80;5.20;;;;;;;8.21;80.91;102790.16;4959357;28;20450;-65
2023/05/27 03:42:06;;;;;;;15.05;5.18;;;;;;;8.19;80.85;102790.06;4958871;28;20613;-64
2023/05/27 03:44:32;;;;;;;12.38;5.32;;;;;;;8.18;80.53;102789.19;4959640;28;20038;-63
2023/05/27 03:46:57;;;;;;;17.60;5.40;;;;;;;8.19;81.02;102792.66;4958931;28;20034;-64
2023/05/27 03:49:23;;;;;;;17.75;5.47;;;;;;;8.21;81.27;102785.84;4959354;28;20502;-65
2023/05/27 03:51:48;;;;;;;15.73;5.68;;;;;;;8.21;81.42;102779.78;4959511;28;20541;-64
2023/05/27 03:54:14;;;;;;;12.02;5.07;;;;;;;8.19;81.04;102784.88;4960942;28;20022;-65
2023/05/27 03:56:39;;;;;;;14.85;5.32;;;;;;;8.19;81.33;102770.19;4961283;28;20026;-64
2023/05/27 03:59:06;;;;;;;15.30;4.80;;;;;;;8.16;81.55;102769.97;4958827;28;20027;-64
2023/05/27 04:01:31;;;;;;;13.55;4.78;;;;;;;8.16;81.75;102771.69;4959358;28;20640;-64
2023/05/27 04:03:57;;;;;;;19.95;6.15;;;;;;;8.13;81.94;102772.38;4959869;28;20026;-64
2023/05/27 04:06:22;;;;;;;10.90;4.82;;;;;;;8.18;81.72;102780.47;4959232;28;20098;-64
2023/05/27 04:08:47;;;;;;;14.32;5.22;;;;;;;8.16;81.94;102777.78;4960744;28;20042;-65
2023/05/27 04:11:13;;;;;;;18.00;5.65;;;;;;;8.13;82.54;102785.38;4960198;28;20117;-64
2023/05/27 04:13:39;;;;;;;14.35;5.35;;;;;;;8.13;82.92;102790.56;4959690;28;20030;-64
2023/05/27 04:16:05;;;;;;;14.98;5.32;;;;;;;8.15;82.89;102777.69;4959894;28;20031;-65
2023/05/27 04:18:30;;;;;;;11.93;5.22;;;;;;;8.13;82.59;102780.19;4959333;28;20384;-64
2023/05/27 04:20:58;;;;;;;15.77;5.50;;;;;;;8.12;83.07;102780.06;4957381;28;20495;-64
2023/05/27 04:23:23;;;;;;;13.43;5.18;;;;;;;8.13;83.03;102769.78;4958975;28;20040;-64
2023/05/27 04:25:49;;;;;;;18.48;5.30;;;;;;;8.13;82.99;102774.09;4958650;28;20026;-64
2023/05/27 04:28:15;;;;;;;11.88;5.25;;;;;;;8.13;83.19;102772.38;4957690;28;20030;-64
2023/05/27 04:30:40;;;;;;;17.40;6.05;;;;;;;8.12;83.63;102773.19;4959297;28;20027;-64
2023/05/27 04:33:07;;;;;;;13.63;4.85;;;;;;;8.15;83.18;102767.28;4959313;28;20073;-64
2023/05/27 04:35:33;;;;;;;12.95;5.30;;;;;;;8.12;80.30;102767.97;4958789;28;20110;-64
2023/05/27 04:38:00;;;;;;;16.45;6.38;;;;;;;8.14;83.55;102763.81;4959549;28;20197;-64
2023/05/27 04:40:26;;;;;;;15.77;6.32;;;;;;;8.15;84.48;102760.41;4958931;28;20035;-64
2023/05/27 04:42:51;;;;;;;15.00;5.13;;;;;;;8.19;84.66;102754.59;4959966;28;20037;-64
2023/05/27 04:45:18;;;;;;;15.95;5.70;;;;;;;8.21;84.40;102759.00;4959795;28;20078;-65
2023/05/27 04:47:44;;;;;;;15.73;5.65;;;;;;;8.24;84.20;102751.41;4959253;28;20058;-65
2023/05/27 04:50:13;;;;;;;14.40;5.85;;;;;;;8.19;84.53;102752.00;4958196;28;20031;-64
2023/05/27 04:52:40;;;;;;;15.07;5.85;;;;;;;8.24;84.57;102754.00;4958640;28;20054;-64
2023/05/27 04:55:08;;;;;;;14.95;6.00;;;;;;;8.25;84.15;102750.59;4958285;28;20022;-64
2023/05/27 04:57:34;;;;;;;15.93;5.78;;;;;;;8.29;84.58;102748.31;4959713;28;20588;-64
2023/05/27 05:02:34;;;;;;;14.02;6.00;;;;;;;8.34;81.33;102743.38;4958221;28;20525;-63
2023/05/27 05:05:08;;;;;;;16.67;6.43;;;;;;;8.32;85.83;102751.09;4958726;28;20035;-64
2023/05/27 05:07:35;;;;;;;13.88;5.82;;;;;;;8.35;84.81;102747.78;4959057;28;20026;-64
2023/05/27 05:10:00;;;;;;;16.63;6.45;;;;;;;8.39;86.04;102746.31;4958661;28;20505;-64
2023/05/27 05:12:26;;;;;;;15.70;6.25;;;;;;;8.41;85.42;102744.69;4957463;28;20035;-64
2023/05/27 05:14:51;;;;;;;18.25;6.28;;;;;;;8.40;82.06;102754.19;4959067;28;20043;-63
2023/05/27 05:17:18;;;;;;;18.17;6.22;;;;;;;8.45;84.97;102745.00;4958073;28;20042;-64
2023/05/27 05:19:44;;;;;;;14.27;5.78;;;;;;;8.50;85.16;102746.22;4958544;28;20038;-64
2023/05/27 05:22:10;;;;;;;14.45;5.90;;;;;;;8.54;85.20;102752.47;4958437;28;20117;-64
2023/05/27 05:24:36;;;;;;;16.75;6.10;;;;;;;8.57;85.58;102749.19;4958108;28;20062;-65
2023/05/27 05:27:01;;;;;;;21.23;6.50;;;;;;;8.62;85.51;102747.78;4958789;28;20065;-64
2023/05/27 05:29:26;;;;;;;16.17;6.38;;;;;;;8.64;85.92;102746.16;4957295;28;20023;-65
2023/05/27 05:31:51;;;;;;;17.35;6.82;;;;;;;8.62;85.65;102746.06;4957441;28;20082;-65
2023/05/27 05:34:17;;;;;;;19.98;6.97;;;;;;;8.63;86.35;102744.34;4958419;28;20042;-65
2023/05/27 05:36:42;;;;;;;16.70;5.80;;;;;;;8.65;82.52;102741.06;4958863;28;20023;-64
2023/05/27 05:39:07;;;;;;;15.68;6.65;;;;;;;8.71;86.34;102745.75;4958116;28;20418;-65
2023/05/27 05:41:33;;;;;;;16.60;6.75;;;;;;;8.77;86.63;102742.63;4957806;28;20045;-64
2023/05/27 05:43:58;;;;;;;18.73;6.75;;;;;;;8.82;85.49;102749.91;4958380;28;20027;-65
2023/05/27 05:46:23;;;;;;;16.75;6.63;;;;;;;8.88;86.59;102742.47;4957624;28;20045;-65
2023/05/27 05:48:52;;;;;;;18.67;7.40;;;;;;;8.92;85.60;102740.06;4958664;28;20027;-65
2023/05/27 05:51:17;;;;;;;18.23;7.13;;;;;;;9.02;86.11;102742.41;4957318;28;20027;-64
2023/05/27 05:53:43;;;;;;;20.27;7.03;;;;;;;9.09;85.66;102738.50;4958453;28;20088;-65
2023/05/27 05:56:08;;;;;;;19.95;7.30;;;;;;;9.14;86.63;102742.25;4958080;28;20022;-65
2023/05/27 05:58:33;;;;;;;19.23;6.97;;;;;;;9.22;86.41;102734.13;4956710;28;20069;-65
2023/05/27 06:01:00;;;;;;;17.75;7.55;;;;;;;9.31;85.79;102725.06;4958072;28;20057;-64
2023/05/27 06:03:25;;;;;;;19.77;7.55;;;;;;;9.36;87.35;102718.44;4958902;28;20035;-65
2023/05/27 06:05:50;;;;;;;17.30;7.28;;;;;;;9.50;85.50;102721.81;4958006;28;20065;-65
2023/05/27 06:08:16;;;;;;;17.23;6.07;;;;;;;9.62;85.56;102719.06;4957448;28;20043;-65
2023/05/27 06:10:41;;;;;;;18.33;6.40;;;;;;;9.74;84.48;102709.34;4957742;28;20082;-65
2023/05/27 06:13:10;;;;;;;19.50;7.43;;;;;;;9.82;85.28;102712.38;4957605;28;20061;-65
2023/05/27 06:15:36;;;;;;;21.13;8.00;;;;;;;9.85;83.97;102713.44;4957953;28;20031;-65
2023/05/27 06:18:01;;;;;;;16.02;6.82;;;;;;;9.91;83.07;102716.41;4957439;28;20407;-65
2023/05/27 06:20:26;;;;;;;17.95;7.03;;;;;;;9.99;84.55;102711.59;4958302;28;20094;-65
2023/05/27 06:22:51;;;;;;;19.95;6.90;;;;;;;10.09;85.67;102710.41;4957406;28;20738;-65
2023/05/27 06:25:17;;;;;;;20.17;7.60;;;;;;;10.21;85.52;102711.13;4957111;28;20027;-65
2023/05/27 06:27:42;;;;;;;21.10;7.45;;;;;;;10.33;83.40;102704.78;4957001;28;20074;-65
2023/05/27 06:30:08;;;;;;;23.25;7.93;;;;;;;10.39;85.22;102707.75;4956695;28;20058;-65
2023/05/27 06:32:33;;;;;;;22.10;7.80;;;;;;;10.49;83.47;102703.94;4957745;28;20395;-65
2023/05/27 06:34:58;;;;;;;22.00;7.82;;;;;;;10.60;82.13;102702.78;4956895;28;20089;-65
2023/05/27 06:37:24;;;;;;;17.85;7.88;;;;;;;10.71;82.82;102709.47;4956900;28;20022;-65
2023/05/27 06:39:49;;;;;;;20.20;8.00;;;;;;;10.80;82.17;102703.84;4957344;28;20185;-66
2023/05/27 06:42:15;;;;;;;19.15;7.47;;;;;;;10.88;80.44;102702.53;4956176;28;20030;-64
2023/05/27 06:44:40;;;;;;;25.27;8.23;;;;;;;10.91;81.11;102697.50;4957427;28;20068;-65
2023/05/27 06:47:05;;;;;;;19.55;7.35;;;;;;;11.03;82.03;102692.00;4958356;28;20058;-65
2023/05/27 06:49:31;;;;;;;20.20;8.25;;;;;;;11.13;81.97;102690.78;4956315;28;20130;-65
2023/05/27 06:51:56;;;;;;;15.23;6.80;;;;;;;11.25;80.94;102694.03;4956399;28;20069;-65
2023/05/27 06:54:21;;;;;;;22.90;7.72;;;;;;;11.30;80.81;102689.91;4957199;28;20027;-64
2023/05/27 06:56:47;;;;;;;20.80;8.27;;;;;;;11.33;78.51;102690.91;4956210;28;20510;-65
2023/05/27 06:59:12;;;;;;;17.15;8.68;;;;;;;11.37;78.58;102695.44;4956315;28;20030;-65
2023/05/27 07:01:37;;;;;;;19.88;8.07;;;;;;;11.46;79.91;102685.47;4957345;28;20086;-65
2023/05/27 07:04:03;;;;;;;19.48;7.88;;;;;;;11.60;79.24;102697.50;4956327;28;20085;-65
2023/05/27 07:06:28;;;;;;;22.98;7.60;;;;;;;11.73;80.21;102683.31;4956946;28;20041;-65
2023/05/27 07:08:54;;;;;;;20.17;8.35;;;;;;;11.82;80.06;102686.34;4956118;28;20050;-65
2023/05/27 07:11:20;;;;;;;20.83;8.68;;;;;;;11.86;78.95;102678.66;4956578;28;20236;-65
2023/05/27 07:13:45;;;;;;;21.95;8.38;;;;;;;11.96;78.82;102686.16;4955996;28;20015;-64
2023/05/27 07:16:10;;;;;;;21.73;8.10;;;;;;;12.02;77.06;102681.25;4956618;28;20563;-65
2023/05/27 07:18:36;;;;;;;20.45;7.95;;;;;;;12.02;76.83;102682.94;4956814;28;20652;-66
2023/05/27 07:21:01;;;;;;;21.92;9.57;;;;;;;12.02;76.58;102691.69;4956148;28;20039;-66
2023/05/27 07:23:26;;;;;;;19.67;8.65;;;;;;;12.11;78.30;102691.22;4956873;28;20039;-66
2023/05/27 07:25:52;;;;;;;23.83;9.48;;;;;;;12.27;79.84;102690.22;4957451;28;20042;-66
2023/05/27 07:28:17;;;;;;;24.70;9.63;;;;;;;12.45;80.06;102687.56;4956831;28;20051;-66
2023/05/27 07:30:42;;;;;;;20.35;9.10;;;;;;;12.60;77.67;102692.56;4956195;28;20085;-65
2023/05/27 07:33:08;;;;;;;24.17;9.05;;;;;;;12.75;76.50;102676.69;4955702;28;20027;-66
2023/05/27 07:35:33;;;;;;;23.45;9.32;;;;;;;12.65;73.49;102688.44;4956829;28;20030;-67
2023/05/27 07:38:00;;;;;;;23.15;8.27;;;;;;;12.65;77.43;102686.72;4955544;28;20047;-66
2023/05/27 07:40:25;;;;;;;27.02;9.10;;;;;;;12.81;77.50;102680.44;4956672;28;20039;-66
2023/05/27 07:42:51;;;;;;;26.30;9.70;;;;;;;12.95;77.15;102667.09;4956369;28;20039;-66
2023/05/27 07:45:17;;;;;;;20.83;8.95;;;;;;;13.17;75.72;102676.75;4956226;28;20042;-66
2023/05/27 07:47:42;;;;;;;19.70;8.73;;;;;;;13.23;72.46;102666.53;4956882;28;20039;-66
2023/05/27 07:50:09;;;;;;;19.65;7.88;;;;;;;13.11;72.91;102666.91;4956572;28;20064;-66
2023/05/27 07:52:34;;;;;;;21.30;8.80;;;;;;;13.09;73.81;102658.09;4955986;28;20580;-66
2023/05/27 07:54:59;;;;;;;20.65;8.93;;;;;;;13.17;74.82;102656.69;4956174;28;20012;-66
2023/05/27 07:57:25;;;;;;;22.77;9.32;;;;;;;13.31;72.24;102648.50;4956727;28;20043;-66
2023/05/27 07:59:50;;;;;;;30.20;9.30;;;;;;;13.48;75.46;102646.63;4956816;28;20618;-66
2023/05/27 08:02:16;;;;;;;20.88;9.43;;;;;;;13.71;75.17;102651.06;4957105;28;20514;-66
2023/05/27 08:04:43;;;;;;;26.60;9.75;;;;;;;13.92;73.01;102644.91;5009469;23;20082;-60
2023/05/27 08:07:09;;;;;;;21.25;9.68;;;;;;;14.00;71.33;102643.44;4961761;28;20039;-59
2023/05/27 08:09:34;;;;;;;24.13;9.23;;;;;;;14.13;73.25;102643.94;4962922;28;20080;-59
2023/05/27 08:12:00;;;;;;;26.52;9.70;;;;;;;14.26;70.50;102644.47;4965378;28;20026;-60
2023/05/27 08:14:27;;;;;;;21.63;8.73;;;;;;;14.24;69.68;102640.88;4963255;28;20023;-60
2023/05/27 08:16:53;;;;;;;23.95;8.73;;;;;;;14.46;71.98;102630.28;4968703;28;20066;-59
2023/05/27 08:19:21;;;;;;;21.92;8.48;;;;;;;14.57;68.74;102627.22;4966648;28;20064;-59
2023/05/27 08:21:46;;;;;;;23.15;9.77;;;;;;;14.68;70.15;102624.97;4967123;28;20034;-60
2023/05/27 08:24:12;;;;;;;24.38;8.88;;;;;;;14.81;66.65;102620.19;4966103;28;20090;-59
2023/05/27 08:26:37;;;;;;;20.15;9.48;;;;;;;14.96;69.68;102612.81;4969351;28;20119;-60
2023/05/27 08:29:03;;;;;;;21.73;8.95;;;;;;;15.10;68.46;102611.53;4968347;28;20735;-66
2023/05/27 08:31:28;;;;;;;23.05;9.10;;;;;;;15.09;68.20;102612.41;4969363;28;20037;-68
2023/05/27 08:33:53;;;;;;;21.23;8.77;;;;;;;15.26;69.79;102605.06;4969060;28;20766;-67
2023/05/27 08:36:19;;;;;;;22.83;9.02;;;;;;;15.44;68.31;102603.91;4967769;28;20027;-67
2023/05/27 08:38:52;;;;;;;23.85;9.40;;;;;;;15.63;66.51;102594.84;4991258;23;20133;-96
2023/05/27 08:41:18;;;;;;;22.90;9.13;;;;;;;15.80;69.25;102584.88;4973560;28;20026;-96
2023/05/27 08:44:05;;;;;;;;;;;;;;;;;;;;;
2023/05/27 08:47:00;;;;;;;22.05;9.40;;;;;;;16.04;66.42;102592.59;4979326;28;20087;-96
2023/05/27 08:49:42;;;;;;;25.90;10.15;;;;;;;15.95;63.29;102582.69;4980089;28;20066;-96
2023/05/27 08:52:19;;;;;;;27.45;10.02;;;;;;;16.06;64.44;102579.50;4963791;28;20114;-96
2023/05/27 08:54:54;;;;;;;22.70;8.90;;;;;;;16.28;64.83;102583.59;4961762;28;20114;-96
2023/05/27 09:00:21;;;;;;;22.45;8.82;;;;;;;16.38;59.93;102575.16;4952860;23;20073;-60
2023/05/27 09:02:46;;;;;;;21.52;9.05;;;;;;;16.27;59.88;102571.34;4956126;28;20054;-59
2023/05/27 09:05:14;;;;;;;19.75;8.70;;;;;;;16.39;61.56;102570.78;4954779;28;20026;-59
2023/05/27 09:07:40;;;;;;;28.80;9.48;;;;;;;16.63;60.84;102562.66;4956207;28;20137;-59
2023/05/27 09:10:07;;;;;;;19.75;8.70;;;;;;;16.65;60.21;102564.44;4953130;28;20037;-59
2023/05/27 09:12:33;;;;;;;19.90;9.18;;;;;;;16.61;58.12;102556.44;4955705;28;20034;-59
2023/05/27 09:14:58;;;;;;;21.60;8.18;;;;;;;16.70;61.14;102556.69;4955491;28;20549;-59
2023/05/27 09:17:24;;;;;;;21.08;8.70;;;;;;;16.99;63.00;102553.94;4955479;28;20061;-60
2023/05/27 09:19:53;;;;;;;18.05;8.35;;;;;;;17.45;62.74;102548.84;4952333;28;20153;-60
2023/05/27 09:22:39;;;;;;;25.02;10.00;;;;;;;17.69;60.22;102552.00;5039561;23;20058;-96
2023/05/27 09:25:11;;;;;;;23.20;8.70;;;;;;;18.00;60.61;102543.88;4984762;28;20042;-96
2023/05/27 09:27:55;;;;;;;19.42;8.50;;;;;;;18.10;57.29;102540.56;4999863;28;20022;-96
2023/05/27 09:30:22;;;;;;;24.33;9.93;;;;;;;17.98;53.78;102537.72;5004028;28;20027;-96
2023/05/27 09:33:07;;;;;;;22.50;9.15;;;;;;;17.92;56.30;102535.84;4999194;28;20027;-96
2023/05/27 09:35:40;;;;;;;18.20;8.55;;;;;;;18.30;58.28;102530.41;5000711;28;20057;-96
2023/05/27 09:38:14;;;;;;;23.58;8.88;;;;;;;18.53;58.16;102528.19;5001712;28;20057;-96
2023/05/27 09:40:46;;;;;;;23.55;8.57;;;;;;;18.74;57.04;102525.03;5003587;28;20054;-93
2023/05/27 09:43:23;;;;;;;25.05;10.43;;;;;;;18.69;53.80;102520.53;4999650;28;20015;-95
2023/05/27 09:45:51;;;;;;;22.90;9.15;;;;;;;18.77;55.55;102530.34;4997208;28;20061;-96
2023/05/27 09:48:20;;;;;;;25.63;9.10;;;;;;;18.79;55.32;102532.16;4983309;28;20114;-95
2023/05/27 09:50:51;;;;;;;;;;;;;;;18.93;55.45;102520.97;4987793;28;20037;-96
2023/05/27 09:53:23;;;;;;;18.92;8.60;;;;;;;19.07;54.61;102520.28;4989895;28;19913;-96
2023/05/27 10:01:49;;;;;;;22.63;8.43;;;;;;;19.28;54.78;102507.38;4987559;28;20065;-96
2023/05/27 10:04:32;;;;;;;22.55;7.93;;;;;;;19.07;52.09;102513.25;4991593;28;20079;-96
2023/05/27 10:07:02;;;;;;;15.93;8.27;;;;;;;18.83;52.77;102505.81;4983841;28;20030;-96
2023/05/27 10:12:30;;;;;;;19.83;8.52;;;;;;;18.81;54.99;102507.50;5010031;23;19969;-61
2023/05/27 10:14:56;;;;;;;26.58;9.45;;;;;;;18.70;52.15;102503.84;4983498;28;20030;-60
2023/05/27 10:17:34;;;;;;;22.63;8.80;;;;;;;18.53;55.05;102496.50;4990795;23;20830;-96
2023/05/27 10:23:25;;;;;;;;;;;;;;;;;;;;;
2023/05/27 10:26:09;;;;;;;22.25;8.90;;;;;;;18.53;54.63;102485.94;4978529;28;20441;-96
2023/05/27 10:28:48;;;;;;;21.17;8.02;;;;;;;18.49;56.18;102485.88;4975316;28;20117;-96
2023/05/27 10:31:18;;;;;;;23.30;8.50;;;;;;;18.38;52.89;102483.94;4974920;28;20034;-96
2023/05/27 10:34:03;;;;;;;21.70;8.52;;;;;;;18.21;54.09;102477.47;4973528;28;20033;-96
2023/05/27 10:36:36;;;;;;;18.25;8.40;;;;;;;18.19;55.42;102477.44;4974768;28;20023;-96
2023/05/27 10:39:26;;;;;;;20.50;8.73;;;;;;;18.20;57.81;102479.19;4972839;28;20471;-96
2023/05/27 10:41:58;;;;;;;20.65;8.75;;;;;;;18.38;58.62;102476.03;4969881;28;20695;-96
2023/05/27 10:44:30;;;;;;;22.35;8.70;;;;;;;18.64;59.93;102472.03;4972640;28;20030;-96
2023/05/27 10:47:03;;;;;;;21.70;9.32;;;;;;;18.90;57.65;102478.66;4971550;28;20035;-96
2023/05/27 10:49:37;;;;;;;24.10;8.77;;;;;;;19.36;57.63;102472.25;4975238;28;20034;-96
2023/05/27 10:52:15;;;;;;;21.55;9.00;;;;;;;19.68;57.81;102462.06;4977237;28;20019;-96
2023/05/27 10:54:52;;;;;;;25.00;8.80;;;;;;;19.98;56.28;102450.06;4970390;28;20508;-96
2023/05/27 10:57:22;;;;;;;20.17;8.15;;;;;;;20.33;56.67;102457.47;4973603;28;20349;-96
2023/05/27 11:00:01;;;;;;;26.63;12.15;;;;;;;20.55;52.44;102447.97;4974838;28;20023;-96
2023/05/27 11:02:34;;;;;;;20.92;10.27;;;;;;;20.78;54.22;102444.59;4971440;28;20023;-96
2023/05/27 11:05:03;;;;;;;23.48;9.02;;;;;;;21.01;55.25;102440.34;4974985;28;20018;-96
2023/05/27 11:07:29;;;;;;;21.77;8.43;;;;;;;21.12;50.35;102424.50;4975407;28;20026;-96
2023/05/27 11:09:57;;;;;;;20.17;8.70;;;;;;;21.29;50.01;102434.28;4973666;28;20038;-96
2023/05/27 11:12:24;;;;;;;22.33;8.50;;;;;;;21.18;49.18;102424.50;4973881;28;20026;-96
2023/05/27 11:15:00;;;;;;;21.08;8.35;;;;;;;21.18;45.16;102421.00;4973712;28;20026;-96
2023/05/27 11:17:25;;;;;;;21.02;7.47;;;;;;;21.01;43.64;102421.81;4976875;28;20500;-96
2023/05/27 11:20:03;;;;;;;18.27;7.97;;;;;;;20.66;44.16;102425.09;4974427;28;20037;-96
2023/05/27 11:22:30;;;;;;;19.45;6.85;;;;;;;20.85;46.82;102419.94;4973689;23;20067;-61
2023/05/27 11:25:00;;;;;;;21.55;6.90;;;;;;;20.96;46.31;102418.22;4955819;28;20394;-61
2023/05/27 11:27:33;;;;;;;15.85;6.00;;;;;;;21.37;46.71;102419.31;4954429;28;20026;-61
2023/05/27 11:29:58;;;;;;;17.35;6.43;;;;;;;21.71;46.95;102404.41;4955084;28;20031;-61
2023/05/27 11:32:23;;;;;;;16.75;6.90;;;;;;;21.89;45.13;102403.53;4953805;28;20045;-61
2023/05/27 11:34:49;;;;;;;16.23;6.90;;;;;;;21.75;44.41;102396.44;4955211;28;20050;-61
2023/05/27 11:37:16;;;;;;;17.80;6.72;;;;;;;21.94;47.12;102390.31;4954648;28;20900;-61
2023/05/27 11:39:52;;;;;;;15.20;6.80;;;;;;;21.97;47.67;102385.00;4956117;28;20031;-62
2023/05/27 11:44:52;;;;;;;18.38;7.13;;;;;;;21.86;41.43;102378.78;5053220;23;20120;-60
2023/05/27 11:50:59;;;;;;;18.08;6.80;;;;;;;22.25;45.28;102377.03;4974391;28;20098;-96